createdAt,value
2022-12-11T00:01:10.883Z,99233.78
2022-12-11T00:03:39.413Z,99226.94
2022-12-11T00:06:08.897Z,99228.69
2022-12-11T00:08:38.995Z,99224.38
2022-12-11T00:11:09.008Z,99221.81
2022-12-11T00:13:37.260Z,99222.66
2022-12-11T00:16:06.038Z,99222.69
2022-12-11T00:18:34.170Z,99219.25
2022-12-11T00:21:02.781Z,99216.66
2022-12-11T00:23:31.491Z,99218.38
2022-12-11T00:26:00.998Z,99216.69
2022-12-11T00:28:29.149Z,99209.84
2022-12-11T00:30:57.315Z,99217.53
2022-12-11T00:33:28.175Z,99215.75
2022-12-11T00:35:56.373Z,99214.88
2022-12-11T00:38:24.652Z,99215.75
2022-12-11T00:40:53.011Z,99215.78
2022-12-11T00:43:22.469Z,99210.66
2022-12-11T00:45:50.733Z,99213.25
2022-12-11T00:48:18.929Z,99220.16
2022-12-11T00:50:47.751Z,99212.44
2022-12-11T00:53:16.042Z,99210.72
2022-12-11T00:55:45.066Z,99204.72
2022-12-11T00:58:14.149Z,99199.59
2022-12-11T01:00:44.223Z,99204.78
2022-12-11T01:03:14.591Z,99203.06
2022-12-11T01:05:43.206Z,99200.50
2022-12-11T01:08:11.444Z,99204.81
2022-12-11T01:10:38.645Z,99204.78
2022-12-11T01:13:08.695Z,99203.09
2022-12-11T01:15:42.118Z,99201.38
2022-12-11T01:18:12.868Z,99191.94
2022-12-11T01:20:42.598Z,99187.66
2022-12-11T01:23:14.141Z,99187.66
2022-12-11T01:25:43.439Z,99189.38
2022-12-11T01:28:12.405Z,99179.06
2022-12-11T01:30:44.147Z,99185.09
2022-12-11T01:33:13.662Z,99188.53
2022-12-11T01:35:42.089Z,99188.53
2022-12-11T01:38:11.537Z,99191.97
2022-12-11T01:40:39.780Z,99191.97
2022-12-11T01:43:10.776Z,99187.66
2022-12-11T01:45:42.094Z,99184.22
2022-12-11T01:48:14.673Z,99185.09
2022-12-11T01:50:46.569Z,99190.25
2022-12-11T01:53:20.430Z,99191.09
2022-12-11T01:55:51.218Z,99187.69
2022-12-11T01:58:21.950Z,99189.38
2022-12-11T02:00:50.234Z,99191.94
2022-12-11T02:03:19.763Z,99190.22
2022-12-11T02:05:48.035Z,99187.69
2022-12-11T02:08:17.232Z,99185.94
2022-12-11T02:10:55.448Z,99185.94
2022-12-11T02:13:32.456Z,99181.66
2022-12-11T02:16:08.461Z,99185.09
2022-12-11T02:18:43.393Z,99187.66
2022-12-11T02:21:16.822Z,99179.09
2022-12-11T02:24:02.182Z,99179.09
2022-12-11T02:26:45.677Z,99170.47
2022-12-11T02:29:21.068Z,99180.78
2022-12-11T02:31:55.428Z,99175.63
2022-12-11T02:34:30.148Z,99173.06
2022-12-11T02:37:01.954Z,99173.91
2022-12-11T02:39:32.389Z,99170.44
2022-12-11T02:42:02.484Z,99178.19
2022-12-11T02:44:35.367Z,99180.75
2022-12-11T02:47:05.550Z,99175.59
2022-12-11T02:49:35.443Z,99177.31
2022-12-11T02:52:07.338Z,99170.47
2022-12-11T02:54:39.364Z,99161.88
2022-12-11T02:57:13.180Z,99167.03
2022-12-11T02:59:45.448Z,99160.16
2022-12-11T03:02:16.429Z,99160.13
2022-12-11T03:04:45.597Z,99155.00
2022-12-11T03:07:17.287Z,99150.72
2022-12-11T03:09:48.255Z,99158.44
2022-12-11T03:12:20.387Z,99150.72
2022-12-11T03:14:50.201Z,99147.28
2022-12-11T03:17:20.839Z,99149.88
2022-12-11T03:19:54.607Z,99145.56
2022-12-11T03:22:29.954Z,99149.84
2022-12-11T03:25:03.755Z,99149.00
2022-12-11T03:27:35.915Z,99143.00
2022-12-11T03:30:08.775Z,99136.13
2022-12-11T03:32:43.327Z,99134.41
2022-12-11T03:35:18.612Z,99124.13
2022-12-11T03:37:49.374Z,99124.97
2022-12-11T03:40:20.562Z,99118.09
2022-12-11T03:42:52.677Z,99106.94
2022-12-11T03:45:24.021Z,99107.81
2022-12-11T03:47:54.467Z,99107.81
2022-12-11T03:50:24.409Z,99111.22
2022-12-11T03:52:53.740Z,99111.25
2022-12-11T03:55:24.061Z,99106.94
2022-12-11T03:57:52.389Z,99105.22
2022-12-11T04:00:24.225Z,99100.06
2022-12-11T04:03:11.349Z,99100.06
2022-12-11T04:05:42.554Z,99103.50
2022-12-11T04:08:10.970Z,99106.06
2022-12-11T04:10:39.559Z,99106.06
2022-12-11T04:13:07.807Z,99098.34
2022-12-11T04:15:36.863Z,99104.34
2022-12-11T04:18:19.574Z,99105.19
2022-12-11T04:21:05.287Z,99109.53
2022-12-11T04:23:50.936Z,99108.63
2022-12-11T04:26:21.314Z,99098.34
2022-12-11T04:28:50.782Z,99105.19
2022-12-11T04:31:22.679Z,99100.88
2022-12-11T04:33:51.244Z,99089.72
2022-12-11T04:36:19.429Z,99098.28
2022-12-11T04:38:47.645Z,99104.31
2022-12-11T04:41:17.079Z,99101.72
2022-12-11T04:43:46.199Z,99100.88
2022-12-11T04:46:16.419Z,99102.59
2022-12-11T04:48:46.854Z,99100.84
2022-12-11T04:51:15.778Z,99098.28
2022-12-11T04:53:44.187Z,99102.56
2022-12-11T04:56:14.868Z,99105.13
2022-12-11T04:58:44.777Z,99100.00
2022-12-11T05:01:15.120Z,99097.41
2022-12-11T05:03:45.317Z,99092.22
2022-12-11T05:06:13.935Z,99093.97
2022-12-11T05:08:43.489Z,99093.97
2022-12-11T05:11:13.781Z,99095.69
2022-12-11T05:13:42.322Z,99093.13
2022-12-11T05:16:12.664Z,99089.66
2022-12-11T05:18:41.551Z,99092.25
2022-12-11T05:21:13.738Z,99089.66
2022-12-11T05:23:42.475Z,99083.69
2022-12-11T05:26:13.498Z,99084.50
2022-12-11T05:28:42.979Z,99090.53
2022-12-11T05:31:14.409Z,99081.06
2022-12-11T05:33:42.774Z,99086.22
2022-12-11T05:36:18.321Z,99087.06
2022-12-11T05:38:46.922Z,99088.78
2022-12-11T05:41:17.956Z,99082.75
2022-12-11T05:43:46.514Z,99081.91
2022-12-11T05:46:16.895Z,99084.47
2022-12-11T05:48:47.185Z,99088.75
2022-12-11T05:51:18.269Z,99088.75
2022-12-11T05:53:48.162Z,99087.88
2022-12-11T05:56:18.927Z,99086.16
2022-12-11T05:58:48.357Z,99085.28
2022-12-11T06:01:19.068Z,99088.72
2022-12-11T06:03:47.523Z,99091.25
2022-12-11T06:06:17.740Z,99087.84
2022-12-11T06:08:45.948Z,99088.66
2022-12-11T06:11:17.326Z,99080.88
2022-12-11T06:13:49.609Z,99084.31
2022-12-11T06:16:18.185Z,99080.81
2022-12-11T06:18:46.988Z,99080.78
2022-12-11T06:21:19.787Z,99085.94
2022-12-11T06:23:49.769Z,99079.00
2022-12-11T06:26:19.061Z,99077.28
2022-12-11T06:28:48.330Z,99075.53
2022-12-11T06:31:17.161Z,99075.53
2022-12-11T06:33:45.465Z,99073.81
2022-12-11T06:36:17.109Z,99078.09
2022-12-11T06:38:46.235Z,99079.84
2022-12-11T06:41:14.853Z,99084.16
2022-12-11T06:43:44.068Z,99084.16
2022-12-11T06:46:13.748Z,99083.28
2022-12-11T06:48:42.628Z,99083.28
2022-12-11T06:51:12.427Z,99076.38
2022-12-11T06:53:42.208Z,99082.41
2022-12-11T06:56:14.213Z,99082.41
2022-12-11T06:58:44.196Z,99081.53
2022-12-11T07:01:21.022Z,99091.88
2022-12-11T07:03:50.008Z,99091.91
2022-12-11T07:06:18.178Z,99089.34
2022-12-11T07:08:47.701Z,99093.63
2022-12-11T07:11:18.371Z,99091.06
2022-12-11T07:13:47.108Z,99087.63
2022-12-11T07:16:17.899Z,99084.16
2022-12-11T07:18:49.669Z,99077.28
2022-12-11T07:21:19.129Z,99078.97
2022-12-11T07:23:48.833Z,99072.09
2022-12-11T07:26:20.267Z,99078.97
2022-12-11T07:28:48.951Z,99081.59
2022-12-11T07:31:18.950Z,99096.25
2022-12-11T07:33:48.368Z,99085.09
2022-12-11T07:36:17.309Z,99097.13
2022-12-11T07:38:45.858Z,99087.66
2022-12-11T07:41:16.829Z,99087.66
2022-12-11T07:43:54.375Z,99097.13
2022-12-11T07:46:24.827Z,99097.97
2022-12-11T07:48:52.978Z,99100.56
2022-12-11T07:51:26.389Z,99094.56
2022-12-11T07:53:56.134Z,99097.16
2022-12-11T07:56:26.280Z,99097.22
2022-12-11T07:58:55.339Z,99094.59
2022-12-11T08:01:26.562Z,99091.16
2022-12-11T08:03:55.337Z,99101.50
2022-12-11T08:06:28.203Z,99098.06
2022-12-11T08:08:56.707Z,99101.53
2022-12-11T08:11:26.678Z,99103.28
2022-12-11T08:13:55.109Z,99098.13
2022-12-11T08:16:24.166Z,99105.88
2022-12-11T08:18:52.627Z,99101.53
2022-12-11T08:21:24.058Z,99101.53
2022-12-11T08:23:53.295Z,99099.81
2022-12-11T08:26:24.088Z,99105.81
2022-12-11T08:28:53.765Z,99096.34
2022-12-11T08:31:22.213Z,99102.38
2022-12-11T08:33:50.966Z,99104.97
2022-12-11T08:36:21.629Z,99099.81
2022-12-11T08:38:51.195Z,99102.41
2022-12-11T08:41:21.125Z,99111.00
2022-12-11T08:43:52.945Z,99112.72
2022-12-11T08:46:24.548Z,99113.56
2022-12-11T08:48:53.449Z,99116.09
2022-12-11T08:51:23.819Z,99110.94
2022-12-11T08:53:52.363Z,99113.56
2022-12-11T08:56:21.781Z,99104.13
2022-12-11T08:58:49.947Z,99111.00
2022-12-11T09:01:21.628Z,99116.16
2022-12-11T09:03:53.147Z,99109.25
2022-12-11T09:06:23.628Z,99115.28
2022-12-11T09:08:53.771Z,99118.69
2022-12-11T09:11:24.706Z,99114.41
2022-12-11T09:13:53.250Z,99110.06
2022-12-11T09:16:22.878Z,99115.22
2022-12-11T09:18:54.025Z,99118.66
2022-12-11T09:21:23.998Z,99121.22
2022-12-11T09:23:55.647Z,99114.34
2022-12-11T09:26:24.646Z,99116.91
2022-12-11T09:28:53.884Z,99116.88
2022-12-11T09:31:25.676Z,99114.28
2022-12-11T09:33:56.751Z,99115.13
2022-12-11T09:36:25.520Z,99111.66
2022-12-11T09:38:54.079Z,99113.41
2022-12-11T09:41:37.628Z,99118.59
2022-12-11T09:44:21.757Z,99116.84
2022-12-11T09:46:52.102Z,99113.41
2022-12-11T09:49:29.977Z,99118.59
2022-12-11T09:52:07.876Z,99117.72
2022-12-11T09:54:36.780Z,99120.28
2022-12-11T09:57:16.086Z,99118.59
2022-12-11T10:00:04.437Z,99120.28
2022-12-11T10:02:48.186Z,99113.41
2022-12-11T10:05:27.238Z,99115.13
2022-12-11T10:08:04.268Z,99120.28
2022-12-11T10:10:42.827Z,99122.00
2022-12-11T10:13:23.416Z,99119.41
2022-12-11T10:15:55.673Z,99125.41
2022-12-11T10:18:25.993Z,99121.13
2022-12-11T10:20:56.818Z,99125.41
2022-12-11T10:23:35.507Z,99124.56
2022-12-11T10:26:08.498Z,99120.22
2022-12-11T10:28:37.224Z,99120.19
2022-12-11T10:31:15.047Z,99119.34
2022-12-11T10:33:55.917Z,99115.91
2022-12-11T10:36:30.311Z,99105.56
2022-12-11T10:38:58.954Z,99104.69
2022-12-11T10:41:40.331Z,99113.31
2022-12-11T10:44:18.392Z,99112.44
2022-12-11T10:46:47.797Z,99112.44
2022-12-11T10:49:24.606Z,99118.44
2022-12-11T10:51:56.287Z,99116.72
2022-12-11T10:54:33.488Z,99108.06
2022-12-11T10:57:04.328Z,99108.06
2022-12-11T10:59:37.354Z,99106.38
2022-12-11T11:02:06.749Z,99104.63
2022-12-11T11:04:38.077Z,99096.00
2022-12-11T11:07:15.005Z,99101.16
2022-12-11T11:09:43.291Z,99097.75
2022-12-11T11:12:30.007Z,99099.44
2022-12-11T11:15:02.223Z,99092.53
2022-12-11T11:17:35.166Z,99093.38
2022-12-11T11:20:13.865Z,99085.63
2022-12-11T11:22:47.640Z,99095.09
2022-12-11T11:25:21.033Z,99092.53
2022-12-11T11:27:52.995Z,99089.06
2022-12-11T11:30:23.888Z,99089.91
2022-12-11T11:32:55.349Z,99089.88
2022-12-11T11:35:25.779Z,99084.72
2022-12-11T11:38:03.564Z,99087.28
2022-12-11T11:40:35.364Z,99088.13
2022-12-11T11:43:15.308Z,99087.25
2022-12-11T11:45:52.876Z,99089.00
2022-12-11T11:48:32.047Z,99081.25
2022-12-11T11:51:09.528Z,99082.97
2022-12-11T11:53:41.687Z,99082.13
2022-12-11T11:56:21.377Z,99078.66
2022-12-11T11:58:59.348Z,99081.25
2022-12-11T12:01:28.329Z,99080.38
2022-12-11T12:03:57.713Z,99079.53
2022-12-11T12:06:39.699Z,99080.38
2022-12-11T12:09:23.869Z,99077.78
2022-12-11T12:11:56.517Z,99076.06
2022-12-11T12:17:31.695Z,99078.63
2022-12-11T12:20:12.336Z,99075.16
2022-12-11T12:22:55.475Z,99077.69
2022-12-11T12:25:30.157Z,99073.41
2022-12-11T12:28:13.974Z,99071.66
2022-12-11T12:30:53.242Z,99077.66
2022-12-11T12:33:32.291Z,99073.34
2022-12-11T12:36:07.563Z,99070.78
2022-12-11T12:38:52.789Z,99066.53
2022-12-11T12:41:33.002Z,99075.16
2022-12-11T12:44:09.798Z,99067.44
2022-12-11T12:46:50.256Z,99068.31
2022-12-11T12:49:29.399Z,99073.44
2022-12-11T12:51:58.796Z,99062.25
2022-12-11T12:54:28.960Z,99066.56
2022-12-11T12:57:00.002Z,99067.38
2022-12-11T12:59:29.324Z,99066.53
2022-12-11T13:01:59.953Z,99067.38
2022-12-11T13:04:55.652Z,99063.06
2022-12-11T13:07:29.831Z,99069.09
2022-12-11T13:10:00.767Z,99065.63
2022-12-11T13:12:41.938Z,99071.63
2022-12-11T13:15:32.446Z,99066.47
2022-12-11T13:18:01.877Z,99061.31
2022-12-11T13:20:32.251Z,99067.38
2022-12-11T13:23:20.440Z,99067.38
2022-12-11T13:25:53.435Z,99072.50
2022-12-11T13:28:26.707Z,99069.91
2022-12-11T13:31:07.645Z,99069.88
2022-12-11T13:33:44.100Z,99073.31
2022-12-11T13:36:27.977Z,99064.63
2022-12-11T13:38:59.858Z,99060.31
2022-12-11T13:41:29.519Z,99062.00
2022-12-11T13:43:59.696Z,99055.94
2022-12-11T13:46:32.417Z,99060.25
2022-12-11T13:49:02.687Z,99062.81
2022-12-11T13:51:34.993Z,99056.75
2022-12-11T13:54:07.443Z,99057.63
2022-12-11T13:56:35.766Z,99055.88
2022-12-11T13:59:05.256Z,99056.75
2022-12-11T14:01:35.877Z,99054.16
2022-12-11T14:04:08.736Z,99062.75
2022-12-11T14:06:38.339Z,99059.34
2022-12-11T14:09:08.262Z,99063.66
2022-12-11T14:11:39.697Z,99061.03
2022-12-11T14:14:20.598Z,99059.28
2022-12-11T14:16:50.463Z,99063.59
2022-12-11T14:19:21.196Z,99064.50
2022-12-11T14:22:08.269Z,99068.81
2022-12-11T14:24:36.610Z,99064.50
2022-12-11T14:27:05.089Z,99064.50
2022-12-11T14:29:35.136Z,99067.97
2022-12-11T14:32:05.391Z,99069.72
2022-12-11T14:34:37.878Z,99076.63
2022-12-11T14:37:08.037Z,99073.19
2022-12-11T14:39:39.487Z,99073.16
2022-12-11T14:42:13.645Z,99069.69
2022-12-11T14:44:50.435Z,99074.00
2022-12-11T14:47:21.976Z,99067.94
2022-12-11T14:49:54.685Z,99078.28
2022-12-11T14:52:26.482Z,99076.56
2022-12-11T14:55:01.218Z,99071.41
2022-12-11T14:57:32.484Z,99074.84
2022-12-11T15:00:02.447Z,99067.13
2022-12-11T15:02:33.291Z,99076.59
2022-12-11T15:05:12.241Z,99083.50
2022-12-11T15:07:41.418Z,99081.75
2022-12-11T15:10:23.518Z,99080.06
2022-12-11T15:12:51.878Z,99077.47
2022-12-11T15:15:21.435Z,99079.22
2022-12-11T15:17:53.041Z,99078.38
2022-12-11T15:20:25.851Z,99077.53
2022-12-11T15:22:55.318Z,99076.66
2022-12-11T15:25:26.815Z,99078.38
2022-12-11T15:27:57.059Z,99074.09
2022-12-11T15:30:31.264Z,99079.25
2022-12-11T15:33:16.627Z,99073.19
2022-12-11T15:35:56.857Z,99077.47
2022-12-11T15:38:30.477Z,99069.78
2022-12-11T15:40:59.307Z,99071.50
2022-12-11T15:43:28.790Z,99074.09
2022-12-11T15:45:58.405Z,99074.97
2022-12-11T15:48:26.808Z,99071.56
2022-12-11T15:50:54.968Z,99079.31
2022-12-11T15:53:23.069Z,99079.31
2022-12-11T15:55:51.744Z,99078.47
2022-12-11T15:58:23.202Z,99078.47
2022-12-11T16:00:51.673Z,99078.47
2022-12-11T16:03:24.015Z,99077.63
2022-12-11T16:05:53.924Z,99074.16
2022-12-11T16:08:24.750Z,99080.19
2022-12-11T16:10:54.668Z,99080.19
2022-12-11T16:13:23.306Z,99075.91
2022-12-11T16:15:53.834Z,99083.66
2022-12-11T16:18:26.008Z,99087.09
2022-12-11T16:20:54.284Z,99082.81
2022-12-11T16:23:22.459Z,99079.34
2022-12-11T16:25:51.397Z,99076.78
2022-12-11T16:28:21.639Z,99078.47
2022-12-11T16:30:50.575Z,99070.75
2022-12-11T16:33:19.006Z,99079.41
2022-12-11T16:35:48.527Z,99081.97
2022-12-11T16:38:16.607Z,99083.69
2022-12-11T16:40:45.616Z,99081.97
2022-12-11T16:43:13.737Z,99080.25
2022-12-11T16:45:42.161Z,99078.53
2022-12-11T16:48:10.945Z,99082.81
2022-12-11T16:50:41.048Z,99074.22
2022-12-11T16:53:13.297Z,99080.25
2022-12-11T16:55:42.506Z,99082.81
2022-12-11T16:58:11.314Z,99085.41
2022-12-11T17:00:39.634Z,99082.84
2022-12-11T17:03:07.887Z,99092.31
2022-12-11T17:05:36.078Z,99088.88
2022-12-11T17:08:04.391Z,99085.41
2022-12-11T17:10:35.377Z,99084.56
2022-12-11T17:13:03.566Z,99088.00
2022-12-11T17:15:31.701Z,99088.03
2022-12-11T17:18:00.333Z,99079.41
2022-12-11T17:20:28.484Z,99082.00
2022-12-11T17:22:56.675Z,99085.44
2022-12-11T17:25:24.803Z,99088.91
2022-12-11T17:27:54.302Z,99082.06
2022-12-11T17:30:22.407Z,99079.44
2022-12-11T17:32:50.784Z,99084.63
2022-12-11T17:35:19.054Z,99087.19
2022-12-11T17:37:47.358Z,99088.91
2022-12-11T17:40:15.406Z,99088.91
2022-12-11T17:42:44.979Z,99097.53
2022-12-11T17:45:14.572Z,99094.97
2022-12-11T17:47:42.857Z,99097.56
2022-12-11T17:50:11.203Z,99101.88
2022-12-11T17:52:43.991Z,99103.59
2022-12-11T17:55:13.012Z,99111.38
2022-12-11T17:57:41.373Z,99117.41
2022-12-11T18:00:10.537Z,99113.09
2022-12-11T18:02:41.795Z,99109.66
2022-12-11T18:05:10.283Z,99106.19
2022-12-11T18:07:39.057Z,99106.19
2022-12-11T18:10:07.646Z,99102.75
2022-12-11T18:12:35.813Z,99104.50
2022-12-11T18:15:04.687Z,99107.06
2022-12-11T18:17:33.526Z,99106.19
2022-12-11T18:20:03.053Z,99102.75
2022-12-11T18:22:31.297Z,99111.38
2022-12-11T18:25:00.984Z,99103.66
2022-12-11T18:27:32.328Z,99104.59
2022-12-11T18:30:00.476Z,99114.03
2022-12-11T18:32:28.932Z,99107.16
2022-12-11T18:34:57.025Z,99104.63
2022-12-11T18:37:28.209Z,99106.34
2022-12-11T18:39:56.517Z,99113.25
2022-12-11T18:42:32.710Z,99115.91
2022-12-11T18:45:01.424Z,99118.50
2022-12-11T18:47:29.815Z,99115.09
2022-12-11T18:50:02.484Z,99117.66
2022-12-11T18:52:35.313Z,99121.94
2022-12-11T18:55:03.703Z,99123.69
2022-12-11T18:57:32.244Z,99119.38
2022-12-11T19:00:07.150Z,99127.97
2022-12-11T19:02:35.465Z,99130.53
2022-12-11T19:05:03.608Z,99132.25
2022-12-11T19:07:31.926Z,99138.31
2022-12-11T19:10:01.459Z,99136.59
2022-12-11T19:12:29.627Z,99135.72
2022-12-11T19:14:57.748Z,99139.16
2022-12-11T19:17:26.127Z,99136.63
2022-12-11T19:19:54.324Z,99134.94
2022-12-11T19:22:22.744Z,99145.28
2022-12-11T19:24:51.685Z,99139.25
2022-12-11T19:27:21.107Z,99135.00
2022-12-11T19:29:49.317Z,99129.81
2022-12-11T19:32:17.536Z,99134.97
2022-12-11T19:34:45.704Z,99142.75
2022-12-11T19:37:14.668Z,99141.91
2022-12-11T19:39:42.778Z,99138.47
2022-12-11T19:42:12.652Z,99138.47
2022-12-11T19:44:42.198Z,99139.38
2022-12-11T19:47:10.951Z,99139.38
2022-12-11T19:49:39.205Z,99135.94
2022-12-11T19:52:07.521Z,99135.97
2022-12-11T19:54:35.599Z,99142.91
2022-12-11T19:57:04.332Z,99144.59
2022-12-11T19:59:32.521Z,99140.25
2022-12-11T20:02:01.987Z,99143.69
2022-12-11T20:04:30.448Z,99139.38
2022-12-11T20:06:58.629Z,99142.81
2022-12-11T20:09:27.128Z,99142.00
2022-12-11T20:11:55.308Z,99148.88
2022-12-11T20:14:25.736Z,99153.16
2022-12-11T20:17:12.129Z,99142.84
2022-12-11T20:19:42.873Z,99146.28
2022-12-11T20:22:11.378Z,99139.41
2022-12-11T20:24:40.523Z,99135.94
2022-12-11T20:27:10.127Z,99143.72
2022-12-11T20:29:39.034Z,99134.28
2022-12-11T20:32:11.387Z,99142.84
2022-12-11T20:34:40.196Z,99137.69
2022-12-11T20:37:09.784Z,99143.69
2022-12-11T20:39:38.268Z,99140.28
2022-12-11T20:42:06.457Z,99139.41
2022-12-11T20:44:34.898Z,99148.03
2022-12-11T20:47:03.162Z,99146.31
2022-12-11T20:49:31.385Z,99151.44
2022-12-11T20:52:00.457Z,99152.31
2022-12-11T20:54:30.086Z,99145.44
2022-12-11T20:56:58.276Z,99147.19
2022-12-11T20:59:27.229Z,99153.25
2022-12-11T21:01:55.985Z,99150.66
2022-12-11T21:04:28.630Z,99157.50
2022-12-11T21:06:57.166Z,99151.50
2022-12-11T21:09:27.749Z,99156.66
2022-12-11T21:12:00.907Z,99153.19
2022-12-11T21:14:29.988Z,99154.91
2022-12-11T21:16:58.204Z,99163.50
2022-12-11T21:19:26.717Z,99158.34
2022-12-11T21:21:54.960Z,99154.03
2022-12-11T21:24:26.440Z,99154.91
2022-12-11T21:26:56.421Z,99149.75
2022-12-11T21:29:27.706Z,99144.59
2022-12-11T21:31:56.185Z,99149.75
2022-12-11T21:34:25.705Z,99147.19
2022-12-11T21:36:57.230Z,99153.22
2022-12-11T21:39:26.199Z,99151.50
2022-12-11T21:41:54.367Z,99151.50
2022-12-11T21:47:12.673Z,99168.69
2022-12-11T21:49:40.886Z,99163.53
2022-12-11T21:52:09.526Z,99169.53
2022-12-11T21:54:38.958Z,99173.00
2022-12-11T21:57:07.298Z,99172.09
2022-12-11T21:59:35.850Z,99172.09
2022-12-11T22:02:04.124Z,99172.06
2022-12-11T22:04:33.625Z,99166.94
2022-12-11T22:07:01.812Z,99176.41
2022-12-11T22:09:29.925Z,99179.00
2022-12-11T22:11:58.950Z,99178.09
2022-12-11T22:14:27.087Z,99180.69
2022-12-11T22:16:55.376Z,99184.16
2022-12-11T22:19:26.658Z,99194.47
2022-12-11T22:22:00.284Z,99185.88
2022-12-11T22:24:28.368Z,99188.47
2022-12-11T22:26:56.534Z,99186.72
2022-12-11T22:29:24.671Z,99191.03
2022-12-11T22:31:53.527Z,99195.34
2022-12-11T22:34:21.687Z,99187.59
2022-12-11T22:36:49.816Z,99179.88
2022-12-11T22:39:19.216Z,99191.91
2022-12-11T22:41:47.485Z,99192.75
2022-12-11T22:44:18.083Z,99196.19
2022-12-11T22:46:50.261Z,99197.91
2022-12-11T22:49:19.395Z,99201.34
2022-12-11T22:51:48.603Z,99204.81
2022-12-11T22:54:16.958Z,99207.38
2022-12-11T22:56:46.593Z,99211.69
2022-12-11T22:59:14.924Z,99221.97
2022-12-11T23:01:43.223Z,99228.88
2022-12-11T23:04:11.352Z,99230.59
2022-12-11T23:06:39.612Z,99230.59
2022-12-11T23:09:08.318Z,99228.88
2022-12-11T23:11:38.959Z,99226.31
2022-12-11T23:14:12.316Z,99221.16
2022-12-11T23:16:40.539Z,99228.84
2022-12-11T23:19:08.863Z,99218.53
2022-12-11T23:21:37.163Z,99228.00
2022-12-11T23:24:05.755Z,99229.72
2022-12-11T23:26:34.344Z,99227.16
2022-12-11T23:29:03.078Z,99227.16
2022-12-11T23:31:32.735Z,99228.88
2022-12-11T23:34:00.915Z,99228.88
2022-12-11T23:36:29.536Z,99226.31
2022-12-11T23:38:57.628Z,99224.59
2022-12-11T23:41:25.926Z,99230.59
2022-12-11T23:43:54.227Z,99234.91
2022-12-11T23:46:25.294Z,99239.22
2022-12-11T23:48:55.115Z,99236.63
2022-12-11T23:51:24.989Z,99242.66
2022-12-11T23:53:53.636Z,99240.94
2022-12-11T23:56:24.778Z,99242.63
2022-12-11T23:58:53.745Z,99237.50
